Time;durP1;ratioP1;P1;durP2;ratioP2;P2;SDS_P1;SDS_P2;PMS_P1;PMS_P2;Temp;Humidity;BMP_temperature;BMP_pressure;BME280_temperature;BME280_humidity;BME280_pressure;Samples;Min_cycle;Max_cycle;Signal;HPM_P1;HPM_P2
2023/05/02 00:00:47;;;;;;;;;;;11.40;99.90;;;;;;4879826;29;19924;-74
2023/05/02 00:03:13;;;;;;;;;;;11.30;99.90;;;;;;4879427;29;19935;-74
2023/05/02 00:05:39;;;;;;;;;;;11.30;99.90;;;;;;4879662;29;20377;-73
2023/05/02 00:08:05;;;;;;;;;;;11.20;99.90;;;;;;4878408;29;19931;-74
2023/05/02 00:10:30;;;;;;;;;;;11.10;99.90;;;;;;4878443;29;19928;-74
2023/05/02 00:12:56;;;;;;;;;;;11.00;99.90;;;;;;4877654;29;19976;-75
2023/05/02 00:15:22;;;;;;;;;;;10.90;99.90;;;;;;4878513;29;19924;-72
2023/05/02 00:17:47;;;;;;;;;;;10.90;99.90;;;;;;4862547;29;19979;-74
2023/05/02 00:20:13;;;;;;;;;;;10.80;99.90;;;;;;4879186;29;19934;-74
2023/05/02 00:22:38;;;;;;;;;;;10.80;99.90;;;;;;4877555;29;20322;-75
2023/05/02 00:25:04;;;;;;;;;;;10.70;99.90;;;;;;4878966;29;19930;-76
2023/05/02 00:27:30;;;;;;;;;;;10.70;99.90;;;;;;4879000;29;19939;-73
2023/05/02 00:29:57;;;;;;;;;;;10.70;99.90;;;;;;4878148;29;19924;-73
2023/05/02 00:32:22;;;;;;;;;;;10.70;99.90;;;;;;4878270;29;20031;-73
2023/05/02 00:34:48;;;;;;;;;;;10.60;99.90;;;;;;4912290;29;20000;-73
2023/05/02 00:37:13;;;;;;;;;;;10.60;99.90;;;;;;4895259;29;19947;-73
2023/05/02 00:39:39;;;;;;;;;;;10.50;99.90;;;;;;4896822;29;19930;-73
2023/05/02 00:42:05;;;;;;;;;;;10.40;99.90;;;;;;4897282;29;20018;-74
2023/05/02 00:44:31;;;;;;;;;;;10.40;99.90;;;;;;4897742;29;19924;-73
2023/05/02 00:46:57;;;;;;;;;;;10.30;99.90;;;;;;4896320;29;19924;-73
2023/05/02 00:49:22;;;;;;;;;;;10.30;99.90;;;;;;4897662;29;19934;-73
2023/05/02 00:51:48;;;;;;;;;;;10.30;99.90;;;;;;4897458;29;20253;-77
2023/05/02 00:54:14;;;;;;;;;;;10.30;99.90;;;;;;4896405;29;19923;-75
2023/05/02 00:56:39;;;;;;;;;;;10.20;99.90;;;;;;4897313;29;19927;-76
2023/05/02 00:59:06;;;;;;;;;;;10.20;99.90;;;;;;4896899;29;20402;-75
2023/05/02 01:01:50;;;;;;;;;;;10.10;99.90;;;;;;4900666;29;19923;-75
2023/05/02 01:04:16;;;;;;;;;;;10.10;99.90;;;;;;4900415;29;19931;-75
2023/05/02 01:06:41;;;;;;;;;;;10.10;99.90;;;;;;4900591;29;19924;-73
2023/05/02 01:09:13;;;;;;;;;;;10.30;99.90;;;;;;4899311;29;20018;-74
2023/05/02 01:11:44;;;;;;;;;;;10.10;99.90;;;;;;4901027;29;20041;-73
2023/05/02 01:14:10;;;;;;;;;;;10.10;99.90;;;;;;4899700;29;20270;-73
2023/05/02 01:16:40;;;;;;;;;;;10.00;99.90;;;;;;4901405;29;19948;-72
2023/05/02 01:19:11;;;;;;;;;;;10.00;99.90;;;;;;4900770;29;19923;-75
2023/05/02 01:21:38;;;;;;;;;;;10.00;99.90;;;;;;4900221;29;19930;-75
2023/05/02 01:24:22;;;;;;;;;;;9.90;99.90;;;;;;4898438;29;19930;-75
2023/05/02 01:26:53;;;;;;;;;;;9.90;99.90;;;;;;4882480;29;19931;-75
2023/05/02 01:29:20;;;;;;;;;;;9.90;99.90;;;;;;4882245;29;19924;-75
2023/05/02 01:31:48;;;;;;;;;;;9.80;99.90;;;;;;4882285;29;19928;-76
2023/05/02 01:34:15;;;;;;;;;;;9.90;99.90;;;;;;4882403;29;19927;-75
2023/05/02 01:36:42;;;;;;;;;;;9.90;99.90;;;;;;4900103;29;19923;-75
2023/05/02 01:39:13;;;;;;;;;;;9.90;99.90;;;;;;4900045;29;19993;-75
2023/05/02 01:41:39;;;;;;;;;;;9.80;99.90;;;;;;4900746;29;19927;-75
2023/05/02 01:44:06;;;;;;;;;;;10.00;99.90;;;;;;4900410;29;19923;-75
2023/05/02 01:46:33;;;;;;;;;;;9.90;99.90;;;;;;4899702;29;19923;-75
2023/05/02 01:49:00;;;;;;;;;;;9.90;99.90;;;;;;4899068;29;20014;-75
2023/05/02 01:51:30;;;;;;;;;;;9.90;99.90;;;;;;4900815;29;19923;-75
2023/05/02 01:53:57;;;;;;;;;;;9.90;99.90;;;;;;4899578;29;19930;-75
2023/05/02 01:56:24;;;;;;;;;;;10.20;99.90;;;;;;4899552;29;19928;-75
2023/05/02 01:58:51;;;;;;;;;;;10.00;99.90;;;;;;4900173;29;19924;-75
2023/05/02 02:01:18;;;;;;;;;;;10.00;99.90;;;;;;4900165;29;20021;-75
2023/05/02 02:03:45;;;;;;;;;;;10.00;99.90;;;;;;4900065;29;19924;-75
2023/05/02 02:06:11;;;;;;;;;;;9.90;99.90;;;;;;4900205;29;19942;-75
2023/05/02 02:08:36;;;;;;;;;;;9.90;99.90;;;;;;4899433;29;19924;-75
2023/05/02 02:11:07;;;;;;;;;;;9.80;99.90;;;;;;4898999;29;19923;-75
2023/05/02 02:13:43;;;;;;;;;;;9.80;99.90;;;;;;4898959;29;19923;-75
2023/05/02 02:16:11;;;;;;;;;;;9.80;99.90;;;;;;4899938;29;20322;-75
2023/05/02 02:18:38;;;;;;;;;;;9.70;99.90;;;;;;4898904;29;19923;-75
2023/05/02 02:21:08;;;;;;;;;;;9.60;99.90;;;;;;4899871;29;19927;-75
2023/05/02 02:23:35;;;;;;;;;;;9.50;99.90;;;;;;4899220;29;19927;-76
2023/05/02 02:26:02;;;;;;;;;;;9.40;99.90;;;;;;4883212;29;19924;-80
2023/05/02 02:28:28;;;;;;;;;;;9.40;99.90;;;;;;4895224;29;20448;-75
2023/05/02 02:30:53;;;;;;;;;;;9.30;99.90;;;;;;4881539;29;20050;-74
2023/05/02 02:33:19;;;;;;;;;;;9.30;99.90;;;;;;4880586;29;19924;-73
2023/05/02 02:35:51;;;;;;;;;;;9.30;99.90;;;;;;4894640;29;19923;-73
2023/05/02 02:38:17;;;;;;;;;;;9.30;99.90;;;;;;4898349;29;20357;-73
2023/05/02 02:40:53;;;;;;;;;;;9.30;99.90;;;;;;4899788;29;20113;-73
2023/05/02 02:43:22;;;;;;;;;;;9.20;99.90;;;;;;4899235;29;19931;-73
2023/05/02 02:45:54;;;;;;;;;;;9.10;99.90;;;;;;4899793;29;19930;-73
2023/05/02 02:48:33;;;;;;;;;;;9.30;99.90;;;;;;4898375;29;20010;-73
2023/05/02 02:51:08;;;;;;;;;;;9.10;99.90;;;;;;4898265;29;20411;-73
2023/05/02 02:53:45;;;;;;;;;;;9.00;99.90;;;;;;4898635;29;19986;-76
2023/05/02 02:56:15;;;;;;;;;;;9.00;99.90;;;;;;4899315;29;19923;-75
2023/05/02 02:58:49;;;;;;;;;;;9.00;99.90;;;;;;4899278;29;19930;-75
2023/05/02 03:01:18;;;;;;;;;;;8.90;99.90;;;;;;4899127;29;19923;-75
2023/05/02 03:03:44;;;;;;;;;;;8.80;99.90;;;;;;4897779;29;20384;-75
2023/05/02 03:06:10;;;;;;;;;;;8.80;99.90;;;;;;4899201;29;19923;-75
2023/05/02 03:08:40;;;;;;;;;;;8.70;99.90;;;;;;4897304;29;19923;-75
2023/05/02 03:11:05;;;;;;;;;;;8.70;99.90;;;;;;4899499;29;20395;-75
2023/05/02 03:13:31;;;;;;;;;;;8.90;99.90;;;;;;4898398;29;19971;-74
2023/05/02 03:15:58;;;;;;;;;;;8.50;99.90;;;;;;4899324;29;20010;-75
2023/05/02 03:18:24;;;;;;;;;;;8.50;99.90;;;;;;4897767;29;19930;-75
2023/05/02 03:20:50;;;;;;;;;;;8.40;99.90;;;;;;4899113;29;19923;-75
2023/05/02 03:23:15;;;;;;;;;;;8.80;99.90;;;;;;4897645;29;19978;-75
2023/05/02 03:25:41;;;;;;;;;;;8.50;99.90;;;;;;4884983;29;20006;-75
2023/05/02 03:28:07;;;;;;;;;;;8.30;99.90;;;;;;4880083;29;19971;-75
2023/05/02 03:30:32;;;;;;;;;;;8.20;99.90;;;;;;4878911;29;20132;-76
2023/05/02 03:32:59;;;;;;;;;;;8.20;99.90;;;;;;4880228;29;20322;-74
2023/05/02 03:35:24;;;;;;;;;;;8.10;99.90;;;;;;4890416;29;19946;-75
2023/05/02 03:37:50;;;;;;;;;;;8.10;99.90;;;;;;4897991;29;20357;-75
2023/05/02 03:40:20;;;;;;;;;;;8.00;99.90;;;;;;4897756;29;19970;-74
2023/05/02 03:42:46;;;;;;;;;;;8.00;99.90;;;;;;4897517;29;19924;-75
2023/05/02 03:45:11;;;;;;;;;;;8.00;99.90;;;;;;4898556;29;19929;-77
2023/05/02 03:47:37;;;;;;;;;;;7.90;99.90;;;;;;4898174;29;19980;-74
2023/05/02 03:50:03;;;;;;;;;;;7.90;99.90;;;;;;4898666;29;19927;-75
2023/05/02 03:52:28;;;;;;;;;;;7.90;99.90;;;;;;4897103;29;19923;-76
2023/05/02 03:54:54;;;;;;;;;;;7.90;99.90;;;;;;4881757;29;20350;-74
2023/05/02 03:57:20;;;;;;;;;;;7.80;99.90;;;;;;4897898;29;19923;-74
2023/05/02 03:59:46;;;;;;;;;;;7.80;99.90;;;;;;4881875;29;19930;-75
2023/05/02 04:02:11;;;;;;;;;;;7.70;99.90;;;;;;4897317;29;19924;-75
2023/05/02 04:04:37;;;;;;;;;;;7.70;99.90;;;;;;4897927;29;19923;-75
2023/05/02 04:07:03;;;;;;;;;;;7.60;99.90;;;;;;4897178;29;19928;-74
2023/05/02 04:09:29;;;;;;;;;;;8.00;99.90;;;;;;4897689;29;19923;-75
2023/05/02 04:11:54;;;;;;;;;;;7.90;99.90;;;;;;4898133;29;19931;-75
2023/05/02 04:14:20;;;;;;;;;;;8.00;99.90;;;;;;4897559;29;20301;-74
2023/05/02 04:16:49;;;;;;;;;;;7.70;99.90;;;;;;4897910;29;19923;-75
2023/05/02 04:19:15;;;;;;;;;;;7.60;99.90;;;;;;4897777;29;19975;-79
2023/05/02 04:21:41;;;;;;;;;;;7.60;99.90;;;;;;4897943;29;19923;-75
2023/05/02 04:24:08;;;;;;;;;;;8.00;99.90;;;;;;4895262;29;20377;-74
2023/05/02 04:26:33;;;;;;;;;;;7.80;99.90;;;;;;4877594;29;20015;-76
2023/05/02 04:28:59;;;;;;;;;;;7.50;99.90;;;;;;4879256;29;20014;-74
2023/05/02 04:31:25;;;;;;;;;;;7.50;99.90;;;;;;4878807;29;19924;-74
2023/05/02 04:33:51;;;;;;;;;;;7.50;99.90;;;;;;4878683;29;19982;-75
2023/05/02 04:36:17;;;;;;;;;;;7.80;99.90;;;;;;4896636;29;19967;-74
2023/05/02 04:38:43;;;;;;;;;;;7.70;99.90;;;;;;4896854;29;19933;-74
2023/05/02 04:41:09;;;;;;;;;;;7.50;99.90;;;;;;4897964;29;19923;-74
2023/05/02 04:43:35;;;;;;;;;;;7.50;99.90;;;;;;4897154;29;19924;-74
2023/05/02 04:46:00;;;;;;;;;;;7.50;99.90;;;;;;4881434;29;19923;-75
2023/05/02 04:48:26;;;;;;;;;;;7.40;99.90;;;;;;4897039;29;19962;-75
2023/05/02 04:50:55;;;;;;;;;;;7.40;95.30;;;;;;4897843;29;19931;-75
2023/05/02 04:53:21;;;;;;;;;;;7.40;98.10;;;;;;4895981;29;19923;-74
2023/05/02 04:55:46;;;;;;;;;;;8.30;96.30;;;;;;4897529;29;19990;-74
2023/05/02 04:58:12;;;;;;;;;;;7.50;92.60;;;;;;4897206;29;20397;-74
2023/05/02 05:00:38;;;;;;;;;;;7.70;89.10;;;;;;4896308;29;20010;-75
2023/05/02 05:03:05;;;;;;;;;;;7.40;91.50;;;;;;4897343;29;20412;-75
2023/05/02 05:05:31;;;;;;;;;;;7.40;90.70;;;;;;4897233;29;19923;-74
2023/05/02 05:07:56;;;;;;;;;;;7.50;77.60;;;;;;4896675;29;19923;-74
2023/05/02 05:10:22;;;;;;;;;;;7.50;75.10;;;;;;4897285;29;19970;-75
2023/05/02 05:12:48;;;;;;;;;;;7.90;71.10;;;;;;4897306;29;20386;-75
2023/05/02 05:15:14;;;;;;;;;;;7.50;73.20;;;;;;4895972;29;20305;-76
2023/05/02 05:17:40;;;;;;;;;;;7.50;65.50;;;;;;4896794;29;20134;-75
2023/05/02 05:20:07;;;;;;;;;;;8.00;71.40;;;;;;4897560;29;20273;-75
2023/05/02 05:22:37;;;;;;;;;;;7.60;64.50;;;;;;4896151;29;19923;-75
2023/05/02 05:25:02;;;;;;;;;;;7.60;62.40;;;;;;4896218;29;19923;-74
2023/05/02 05:27:28;;;;;;;;;;;7.60;69.60;;;;;;4896533;29;19930;-76
2023/05/02 05:29:54;;;;;;;;;;;7.60;58.60;;;;;;4896314;29;19923;-74
2023/05/02 05:32:20;;;;;;;;;;;7.60;55.30;;;;;;4896579;29;19975;-74
2023/05/02 05:34:50;;;;;;;;;;;7.80;54.70;;;;;;4896832;29;19931;-76
2023/05/02 05:37:16;;;;;;;;;;;7.60;60.50;;;;;;4896108;29;19931;-74
2023/05/02 05:39:42;;;;;;;;;;;7.60;49.80;;;;;;4896929;29;20297;-74
2023/05/02 05:42:08;;;;;;;;;;;7.60;51.30;;;;;;4897129;29;19923;-75
2023/05/02 05:44:34;;;;;;;;;;;7.60;50.70;;;;;;4896732;29;20266;-72
2023/05/02 05:47:00;;;;;;;;;;;7.60;49.60;;;;;;4899924;29;20296;-72
2023/05/02 05:49:26;;;;;;;;;;;7.70;51.60;;;;;;4900813;29;19927;-74
2023/05/02 05:51:51;;;;;;;;;;;7.70;54.70;;;;;;4900117;29;19971;-75
2023/05/02 05:54:17;;;;;;;;;;;7.90;50.10;;;;;;4900224;29;20012;-74
2023/05/02 05:56:43;;;;;;;;;;;7.80;49.80;;;;;;4898845;29;19931;-75
2023/05/02 05:59:09;;;;;;;;;;;7.90;40.40;;;;;;4900194;29;20026;-73
2023/05/02 06:01:34;;;;;;;;;;;7.80;45.50;;;;;;4899283;29;20424;-76
2023/05/02 06:04:01;;;;;;;;;;;7.90;40.10;;;;;;4899217;29;19967;-74
2023/05/02 06:06:27;;;;;;;;;;;8.00;40.40;;;;;;4900459;29;19994;-75
2023/05/02 06:08:53;;;;;;;;;;;8.00;39.80;;;;;;4898245;29;19923;-73
2023/05/02 06:11:19;;;;;;;;;;;8.00;32.50;;;;;;4900556;29;19923;-74
2023/05/02 06:13:44;;;;;;;;;;;8.00;33.20;;;;;;4898648;29;19979;-75
2023/05/02 06:16:10;;;;;;;;;;;8.00;23.70;;;;;;4899196;29;20391;-74
2023/05/02 06:18:36;;;;;;;;;;;8.10;21.90;;;;;;4898451;29;19927;-75
2023/05/02 06:21:05;;;;;;;;;;;8.10;28.60;;;;;;4899234;29;19923;-75
2023/05/02 06:23:31;;;;;;;;;;;8.10;34.70;;;;;;4898765;29;19923;-75
2023/05/02 06:25:58;;;;;;;;;;;8.10;26.10;;;;;;4899956;29;20006;-75
2023/05/02 06:28:23;;;;;;;;;;;8.20;26.90;;;;;;4898725;29;19934;-75
2023/05/02 06:30:55;;;;;;;;;;;8.20;26.70;;;;;;4899778;29;20144;-72
2023/05/02 06:33:21;;;;;;;;;;;8.30;27.00;;;;;;4899523;29;19927;-73
2023/05/02 06:35:51;;;;;;;;;;;8.60;26.70;;;;;;4898375;29;19923;-73
2023/05/02 06:38:17;;;;;;;;;;;8.40;25.70;;;;;;4898996;29;19931;-73
2023/05/02 06:40:44;;;;;;;;;;;8.40;27.20;;;;;;4898695;29;20278;-72
2023/05/02 06:43:10;;;;;;;;;;;8.50;26.40;;;;;;4899739;29;19934;-73
2023/05/02 06:45:35;;;;;;;;;;;8.60;18.80;;;;;;4899464;29;19924;-74
2023/05/02 06:48:01;;;;;;;;;;;8.70;19.40;;;;;;4899527;29;19924;-73
2023/05/02 06:50:28;;;;;;;;;;;8.70;20.30;;;;;;4899773;29;20038;-73
2023/05/02 06:52:53;;;;;;;;;;;8.80;20.60;;;;;;4898713;29;20285;-73
2023/05/02 06:55:19;;;;;;;;;;;8.80;16.80;;;;;;4899548;29;19924;-73
2023/05/02 06:57:45;;;;;;;;;;;8.90;11.20;;;;;;4898409;29;19923;-73
2023/05/02 07:00:11;;;;;;;;;;;8.80;7.90;;;;;;4898653;29;19924;-73
2023/05/02 07:02:36;;;;;;;;;;;8.90;5.00;;;;;;4898761;29;19924;-73
2023/05/02 07:05:02;;;;;;;;;;;8.80;5.30;;;;;;4899593;29;20288;-73
2023/05/02 07:07:27;;;;;;;;;;;9.00;16.10;;;;;;4898344;29;19927;-73
2023/05/02 07:09:53;;;;;;;;;;;9.10;1.50;;;;;;4898775;29;19934;-74
2023/05/02 07:12:19;;;;;;;;;;;9.20;2.40;;;;;;4899102;29;19924;-73
2023/05/02 07:14:45;;;;;;;;;;;10.00;4.00;;;;;;4898786;29;19931;-74
2023/05/02 07:17:11;;;;;;;;;;;9.50;1.00;;;;;;4897956;29;19923;-73
2023/05/02 07:19:36;;;;;;;;;;;9.50;1.00;;;;;;4898449;29;19930;-74
2023/05/02 07:22:02;;;;;;;;;;;9.60;1.00;;;;;;4897332;29;19924;-73
2023/05/02 07:24:28;;;;;;;;;;;9.90;1.00;;;;;;4894576;29;19924;-73
2023/05/02 07:26:53;;;;;;;;;;;9.70;1.00;;;;;;4879706;29;19928;-73
2023/05/02 07:29:19;;;;;;;;;;;9.60;1.00;;;;;;4879163;29;20026;-72
2023/05/02 07:31:44;;;;;;;;;;;9.60;1.00;;;;;;4878998;29;20030;-74
2023/05/02 07:34:10;;;;;;;;;;;9.60;1.00;;;;;;4881163;29;19923;-73
2023/05/02 07:36:36;;;;;;;;;;;9.60;1.00;;;;;;4898662;29;19923;-73
2023/05/02 07:39:01;;;;;;;;;;;9.70;1.00;;;;;;4896445;29;19970;-73
2023/05/02 07:41:27;;;;;;;;;;;9.80;1.00;;;;;;4898415;29;19927;-75
2023/05/02 07:43:53;;;;;;;;;;;9.90;1.00;;;;;;4897106;29;20263;-74
2023/05/02 07:46:18;;;;;;;;;;;10.10;1.00;;;;;;4897591;29;19923;-74
2023/05/02 07:48:44;;;;;;;;;;;10.30;1.00;;;;;;4898437;29;19966;-74
2023/05/02 07:51:10;;;;;;;;;;;10.60;1.00;;;;;;4882155;29;20357;-74
2023/05/02 07:53:35;;;;;;;;;;;10.70;1.00;;;;;;4897695;29;20396;-74
2023/05/02 07:56:07;;;;;;;;;;;10.90;1.00;;;;;;4897761;29;20042;-74
2023/05/02 07:58:36;;;;;;;;;;;11.00;1.00;;;;;;4898280;29;20026;-72
2023/05/02 08:01:02;;;;;;;;;;;11.20;1.00;;;;;;4898124;29;19927;-73
2023/05/02 08:03:28;;;;;;;;;;;11.20;1.00;;;;;;4897273;29;19923;-73
2023/05/02 08:05:54;;;;;;;;;;;11.20;1.00;;;;;;4897195;29;20345;-73
2023/05/02 08:08:19;;;;;;;;;;;11.20;1.00;;;;;;4897041;29;19924;-73
2023/05/02 08:10:45;;;;;;;;;;;11.20;1.00;;;;;;4896035;29;19932;-72
2023/05/02 08:13:11;;;;;;;;;;;11.10;1.00;;;;;;4896739;29;19949;-72
2023/05/02 08:15:37;;;;;;;;;;;11.20;1.00;;;;;;4897056;29;19930;-72
2023/05/02 08:18:02;;;;;;;;;;;11.20;1.00;;;;;;4897675;29;19927;-72
2023/05/02 08:20:28;;;;;;;;;;;11.30;1.00;;;;;;4881739;29;20353;-73
2023/05/02 08:22:53;;;;;;;;;;;11.30;1.00;;;;;;4895852;29;19934;-73
2023/05/02 08:25:19;;;;;;;;;;;11.40;1.00;;;;;;4886955;29;19930;-73
2023/05/02 08:27:45;;;;;;;;;;;11.30;1.00;;;;;;4879167;29;19931;-73
2023/05/02 08:30:10;;;;;;;;;;;11.40;1.00;;;;;;4879567;29;20026;-73
2023/05/02 08:32:36;;;;;;;;;;;11.50;1.00;;;;;;4879312;29;19972;-72
2023/05/02 08:35:02;;;;;;;;;;;11.60;1.00;;;;;;4885411;29;19923;-73
2023/05/02 08:37:27;;;;;;;;;;;11.80;1.00;;;;;;4896836;29;19923;-72
2023/05/02 08:39:53;;;;;;;;;;;11.90;1.00;;;;;;4897158;29;19927;-73
2023/05/02 08:42:21;;;;;;;;;;;11.90;1.00;;;;;;4896708;29;19985;-72
2023/05/02 08:44:47;;;;;;;;;;;11.90;1.00;;;;;;4897453;29;19923;-74
2023/05/02 08:47:14;;;;;;;;;;;11.80;1.00;;;;;;4897670;29;20323;-73
2023/05/02 08:49:40;;;;;;;;;;;11.70;1.00;;;;;;4897794;29;19946;-73
2023/05/02 08:52:06;;;;;;;;;;;11.60;1.00;;;;;;4896380;29;20300;-72
2023/05/02 08:54:32;;;;;;;;;;;11.50;1.00;;;;;;4897643;29;19931;-74
2023/05/02 08:56:58;;;;;;;;;;;11.60;1.00;;;;;;4895373;29;19923;-73
2023/05/02 08:59:24;;;;;;;;;;;11.80;1.00;;;;;;4897566;29;20384;-73
2023/05/02 09:01:54;;;;;;;;;;;12.00;1.00;;;;;;4897125;29;20019;-74
2023/05/02 09:04:22;;;;;;;;;;;12.00;1.00;;;;;;4897490;29;19923;-73
2023/05/02 09:06:48;;;;;;;;;;;12.30;1.00;;;;;;4896026;29;19928;-75
2023/05/02 09:09:13;;;;;;;;;;;12.50;1.00;;;;;;4896774;29;19930;-73
2023/05/02 09:11:39;;;;;;;;;;;12.60;1.00;;;;;;4896333;29;20006;-73
2023/05/02 09:14:13;;;;;;;;;;;12.80;1.00;;;;;;4896938;29;20018;-73
2023/05/02 09:16:39;;;;;;;;;;;12.80;1.00;;;;;;4897503;29;20093;-73
2023/05/02 09:19:04;;;;;;;;;;;13.00;1.00;;;;;;4880323;29;19992;-73
2023/05/02 09:21:36;;;;;;;;;;;13.20;1.00;;;;;;4883172;29;19970;-74
2023/05/02 09:24:12;;;;;;;;;;;13.30;1.00;;;;;;4899984;29;19923;-73
2023/05/02 09:26:38;;;;;;;;;;;13.30;1.00;;;;;;4900962;29;19923;-73
2023/05/02 09:29:04;;;;;;;;;;;13.20;1.00;;;;;;4900715;29;19931;-74
2023/05/02 09:31:35;;;;;;;;;;;13.00;1.00;;;;;;4900834;29;20389;-73
2023/05/02 09:34:10;;;;;;;;;;;13.00;1.00;;;;;;4900326;29;19929;-73
2023/05/02 09:36:40;;;;;;;;;;;12.70;1.00;;;;;;4899865;29;20298;-73
2023/05/02 09:39:10;;;;;;;;;;;12.70;1.00;;;;;;4898805;29;20273;-73
2023/05/02 09:41:40;;;;;;;;;;;12.60;1.00;;;;;;4900886;29;19967;-72
2023/05/02 09:44:08;;;;;;;;;;;12.50;1.00;;;;;;4900416;29;19924;-73
2023/05/02 09:46:38;;;;;;;;;;;12.60;1.00;;;;;;4900854;29;19931;-74
2023/05/02 09:49:04;;;;;;;;;;;12.70;1.00;;;;;;4900345;29;19975;-72
2023/05/02 09:51:30;;;;;;;;;;;12.80;1.00;;;;;;4899900;29;19923;-74
2023/05/02 09:53:55;;;;;;;;;;;12.90;1.00;;;;;;4899263;29;19923;-74
2023/05/02 09:56:21;;;;;;;;;;;12.90;1.00;;;;;;4899333;29;20023;-73
2023/05/02 09:58:47;;;;;;;;;;;13.00;1.00;;;;;;4900825;29;20014;-73
2023/05/02 10:01:18;;;;;;;;;;;13.00;1.00;;;;;;4900197;29;19927;-73
2023/05/02 10:03:47;;;;;;;;;;;13.10;1.00;;;;;;4900481;29;20338;-73
2023/05/02 10:06:14;;;;;;;;;;;12.90;1.00;;;;;;4900214;29;19998;-73
2023/05/02 10:08:40;;;;;;;;;;;12.90;1.00;;;;;;4899394;29;19931;-73
2023/05/02 10:11:07;;;;;;;;;;;12.90;1.00;;;;;;4900285;29;20018;-73
2023/05/02 10:13:34;;;;;;;;;;;12.90;1.00;;;;;;4898618;29;19930;-73
2023/05/02 10:16:00;;;;;;;;;;;13.00;1.00;;;;;;4900121;29;20293;-73
2023/05/02 10:18:47;;;;;;;;;;;13.10;1.00;;;;;;4900117;29;20284;-73
2023/05/02 10:21:15;;;;;;;;;;;13.20;1.00;;;;;;4899956;29;20242;-72
2023/05/02 10:23:44;;;;;;;;;;;13.30;1.00;;;;;;4898383;29;20292;-73
2023/05/02 10:26:12;;;;;;;;;;;13.40;1.00;;;;;;4899621;29;19927;-73
2023/05/02 10:28:38;;;;;;;;;;;13.70;1.00;;;;;;4899957;29;19931;-74
2023/05/02 10:31:04;;;;;;;;;;;14.40;1.00;;;;;;4899731;29;20027;-73
2023/05/02 10:33:30;;;;;;;;;;;14.90;1.00;;;;;;4898012;29;20000;-74
2023/05/02 10:35:56;;;;;;;;;;;14.70;1.00;;;;;;4899310;29;19923;-74
2023/05/02 10:38:23;;;;;;;;;;;14.50;1.00;;;;;;4898996;29;19924;-73
2023/05/02 10:41:03;;;;;;;;;;;14.40;1.00;;;;;;4899644;29;19923;-73
2023/05/02 10:43:31;;;;;;;;;;;14.30;1.00;;;;;;4899580;29;19923;-74
2023/05/02 10:45:57;;;;;;;;;;;14.10;1.00;;;;;;4899592;29;19923;-73
2023/05/02 10:48:25;;;;;;;;;;;14.40;1.00;;;;;;4899586;29;19934;-73
2023/05/02 10:50:55;;;;;;;;;;;15.10;1.00;;;;;;4899841;29;19996;-73
2023/05/02 10:53:25;;;;;;;;;;;15.40;1.00;;;;;;4898558;29;19974;-73
2023/05/02 10:56:09;;;;;;;;;;;15.30;1.00;;;;;;4899756;29;19923;-73
2023/05/02 10:58:34;;;;;;;;;;;15.10;1.00;;;;;;4899266;29;20018;-73
2023/05/02 11:01:23;;;;;;;;;;;14.80;1.00;;;;;;4898078;29;20514;-73
2023/05/02 11:03:52;;;;;;;;;;;14.50;1.00;;;;;;4891432;29;19927;-73
2023/05/02 11:06:18;;;;;;;;;;;14.30;1.00;;;;;;4899088;29;19924;-73
2023/05/02 11:08:43;;;;;;;;;;;14.10;1.00;;;;;;4898426;29;20301;-73
2023/05/02 11:11:27;;;;;;;;;;;14.10;1.00;;;;;;4898962;29;19923;-73
2023/05/02 11:13:53;;;;;;;;;;;14.00;1.00;;;;;;4899006;29;19923;-75
2023/05/02 11:16:19;;;;;;;;;;;14.10;1.00;;;;;;4897765;29;20388;-73
2023/05/02 11:18:57;;;;;;;;;;;14.40;1.00;;;;;;4898983;29;19923;-73
2023/05/02 11:21:24;;;;;;;;;;;14.90;1.00;;;;;;4899437;29;20292;-73
2023/05/02 11:23:49;;;;;;;;;;;15.40;1.00;;;;;;4898185;29;20018;-73
2023/05/02 11:26:21;;;;;;;;;;;15.50;1.00;;;;;;4897565;29;19967;-72
2023/05/02 11:28:47;;;;;;;;;;;15.30;1.00;;;;;;4898806;29;19924;-73
2023/05/02 11:31:25;;;;;;;;;;;15.10;1.00;;;;;;4897737;29;20552;-73
2023/05/02 11:33:58;;;;;;;;;;;14.80;1.00;;;;;;4897687;29;20017;-73
2023/05/02 11:36:34;;;;;;;;;;;14.50;1.00;;;;;;4898453;29;19939;-73
2023/05/02 11:39:00;;;;;;;;;;;14.30;1.00;;;;;;4897773;29;19923;-73
2023/05/02 11:41:38;;;;;;;;;;;14.10;1.00;;;;;;4898913;29;20391;-73
2023/05/02 11:44:04;;;;;;;;;;;14.00;1.00;;;;;;4898240;29;19982;-74
2023/05/02 11:46:29;;;;;;;;;;;13.80;1.00;;;;;;4897727;29;20436;-74
2023/05/02 11:48:55;;;;;;;;;;;13.50;1.00;;;;;;4898569;29;20405;-74
2023/05/02 11:51:23;;;;;;;;;;;13.40;1.00;;;;;;4898099;29;19923;-73
2023/05/02 11:53:49;;;;;;;;;;;13.20;1.00;;;;;;4897370;29;20384;-73
2023/05/02 11:56:15;;;;;;;;;;;13.10;1.00;;;;;;4898081;29;19979;-73
2023/05/02 11:58:42;;;;;;;;;;;13.00;1.00;;;;;;4898192;29;20361;-73
2023/05/02 12:01:15;;;;;;;;;;;13.20;1.00;;;;;;4898152;29;19929;-73
2023/05/02 12:03:40;;;;;;;;;;;13.40;1.00;;;;;;4898158;29;20018;-73
2023/05/02 12:06:10;;;;;;;;;;;13.60;1.00;;;;;;4898070;29;20014;-73
2023/05/02 12:08:36;;;;;;;;;;;14.10;1.00;;;;;;4896541;29;19930;-72
2023/05/02 12:11:01;;;;;;;;;;;14.40;1.00;;;;;;4898255;29;19923;-73
2023/05/02 12:13:30;;;;;;;;;;;14.60;1.00;;;;;;4898173;29;20018;-73
2023/05/02 12:15:56;;;;;;;;;;;14.40;1.00;;;;;;4898347;29;20018;-73
2023/05/02 12:18:22;;;;;;;;;;;14.30;1.00;;;;;;4897937;29;19923;-73
2023/05/02 12:20:50;;;;;;;;;;;14.20;1.00;;;;;;4898187;29;19987;-73
2023/05/02 12:23:15;;;;;;;;;;;14.10;1.00;;;;;;4896784;29;19923;-73
2023/05/02 12:25:41;;;;;;;;;;;14.10;1.00;;;;;;4897403;29;19924;-73
2023/05/02 12:28:08;;;;;;;;;;;14.10;1.00;;;;;;4897330;29;19923;-78
2023/05/02 12:30:34;;;;;;;;;;;14.20;1.00;;;;;;4897821;29;19927;-73
2023/05/02 12:33:01;;;;;;;;;;;14.50;1.00;;;;;;4897765;29;19966;-73
2023/05/02 12:35:27;;;;;;;;;;;14.80;1.00;;;;;;4897453;29;20027;-72
2023/05/02 12:37:53;;;;;;;;;;;15.00;1.00;;;;;;4896585;29;20406;-73
2023/05/02 12:40:19;;;;;;;;;;;15.00;1.00;;;;;;4881205;29;20010;-73
2023/05/02 12:42:58;;;;;;;;;;;15.10;1.00;;;;;;4896612;29;19930;-73
2023/05/02 12:45:27;;;;;;;;;;;15.20;1.00;;;;;;4897476;29;19934;-73
2023/05/02 12:47:53;;;;;;;;;;;15.20;1.00;;;;;;4897588;29;19979;-74
2023/05/02 12:50:19;;;;;;;;;;;15.10;1.00;;;;;;4896075;29;19993;-73
2023/05/02 12:52:48;;;;;;;;;;;15.00;1.00;;;;;;4896824;29;19930;-73
2023/05/02 12:55:32;;;;;;;;;;;14.90;1.00;;;;;;4896841;29;19974;-73
2023/05/02 12:58:01;;;;;;;;;;;14.80;1.00;;;;;;4895831;29;20009;-73
2023/05/02 13:00:26;;;;;;;;;;;14.50;1.00;;;;;;4896197;29;19924;-73
2023/05/02 13:02:52;;;;;;;;;;;14.20;1.00;;;;;;4897653;29;20018;-73
2023/05/02 13:05:18;;;;;;;;;;;13.90;1.00;;;;;;4897349;29;19924;-72
2023/05/02 13:07:44;;;;;;;;;;;13.90;1.00;;;;;;4895343;29;20026;-73
2023/05/02 13:10:10;;;;;;;;;;;12.90;1.00;;;;;;4897849;29;20006;-73
2023/05/02 13:12:37;;;;;;;;;;;14.00;1.00;;;;;;4896814;29;19974;-73
2023/05/02 13:15:03;;;;;;;;;;;14.30;1.00;;;;;;4896157;29;19927;-72
2023/05/02 13:17:29;;;;;;;;;;;14.60;1.00;;;;;;4895730;29;19924;-72
2023/05/02 13:19:54;;;;;;;;;;;14.80;1.00;;;;;;4896567;29;19923;-72
2023/05/02 13:22:20;;;;;;;;;;;15.00;1.00;;;;;;4895337;29;19923;-72
2023/05/02 13:24:46;;;;;;;;;;;15.10;1.00;;;;;;4897428;29;20365;-73
2023/05/02 13:27:12;;;;;;;;;;;15.20;1.00;;;;;;4897275;29;19983;-74
2023/05/02 13:29:37;;;;;;;;;;;15.60;1.00;;;;;;4896873;29;20414;-74
2023/05/02 13:32:03;;;;;;;;;;;15.30;1.00;;;;;;4897257;29;19953;-72
2023/05/02 13:34:28;;;;;;;;;;;15.30;1.00;;;;;;4896888;29;19930;-73
2023/05/02 13:36:54;;;;;;;;;;;15.10;1.00;;;;;;4895437;29;19943;-74
2023/05/02 13:39:19;;;;;;;;;;;14.70;1.00;;;;;;4896682;29;19930;-73
2023/05/02 13:41:45;;;;;;;;;;;14.60;1.00;;;;;;4880713;29;19927;-73
2023/05/02 13:44:11;;;;;;;;;;;14.40;1.00;;;;;;4896201;29;19930;-72
2023/05/02 13:46:37;;;;;;;;;;;14.30;1.00;;;;;;4896025;29;20153;-73
2023/05/02 13:49:03;;;;;;;;;;;14.30;1.00;;;;;;4897495;29;19986;-73
2023/05/02 13:51:30;;;;;;;;;;;14.50;1.00;;;;;;4896695;29;20059;-74
2023/05/02 13:53:56;;;;;;;;;;;14.80;1.00;;;;;;4895463;29;19924;-73
2023/05/02 13:56:21;;;;;;;;;;;14.80;1.00;;;;;;4896593;29;20301;-74
2023/05/02 13:58:47;;;;;;;;;;;14.40;1.00;;;;;;4896602;29;20300;-75
2023/05/02 14:01:13;;;;;;;;;;;14.40;1.00;;;;;;4896046;29;20276;-76
2023/05/02 14:03:38;;;;;;;;;;;14.20;1.00;;;;;;4896567;29;19923;-72
2023/05/02 14:06:04;;;;;;;;;;;13.80;1.00;;;;;;4897305;29;20321;-72
2023/05/02 14:08:29;;;;;;;;;;;13.70;1.00;;;;;;4897873;29;19923;-73
2023/05/02 14:10:55;;;;;;;;;;;13.60;1.00;;;;;;4899421;29;19927;-72
2023/05/02 14:13:21;;;;;;;;;;;13.50;1.00;;;;;;4899698;29;19923;-77
2023/05/02 14:15:46;;;;;;;;;;;13.50;1.00;;;;;;4899243;29;20432;-73
2023/05/02 14:18:12;;;;;;;;;;;13.60;1.00;;;;;;4900127;29;19924;-73
2023/05/02 14:20:37;;;;;;;;;;;13.70;1.00;;;;;;4900024;29;19959;-73
2023/05/02 14:23:03;;;;;;;;;;;13.90;1.00;;;;;;4898521;29;20297;-75
2023/05/02 14:25:29;;;;;;;;;;;14.00;1.00;;;;;;4899705;29;19971;-72
2023/05/02 14:27:54;;;;;;;;;;;14.30;1.00;;;;;;4899971;29;19959;-72